Time;durP1;ratioP1;P1;durP2;ratioP2;P2;SDS_P1;SDS_P2;PMS_P1;PMS_P2;Temp;Humidity;BMP_temperature;BMP_pressure;BME280_temperature;BME280_humidity;BME280_pressure;Samples;Min_cycle;Max_cycle;Signal;HPM_P1;HPM_P2
2021/12/17 06:10:14;;;;;;;1.48;1.48;;;;;;;0.84;86.19;99288.72;6262752;22;20059;-80
2021/12/17 06:12:46;;;;;;;2.60;1.80;;;;;;;1.01;86.77;99314.84;6193350;22;20028;-80
2021/12/17 06:15:23;;;;;;;2.00;1.90;;;;;;;0.92;86.66;99292.78;6172965;22;20015;-80
2021/12/17 06:17:50;;;;;;;2.75;1.95;;;;;;;0.95;86.80;99305.56;6169493;22;20020;-80
2021/12/17 06:20:16;;;;;;;1.50;1.50;;;;;;;0.92;86.12;99310.78;6168412;22;20026;-80
2021/12/17 06:22:46;;;;;;;2.40;2.30;;;;;;;0.87;85.53;99302.34;6244041;22;20050;-80
2021/12/17 06:25:13;;;;;;;2.40;2.30;;;;;;;0.96;85.60;99325.22;6168878;22;20023;-79
2021/12/17 06:27:39;;;;;;;3.05;2.33;;;;;;;0.98;86.08;99328.59;6243903;22;20304;-80
2021/12/17 06:30:21;;;;;;;2.85;2.35;;;;;;;1.03;87.04;99347.34;6159433;22;20352;-80
2021/12/17 06:32:49;;;;;;;4.38;2.33;;;;;;;1.03;86.50;99347.34;6168798;22;20026;-79
2021/12/17 06:35:16;;;;;;;3.33;2.58;;;;;;;0.94;86.04;99328.72;6168998;22;20487;-79
2021/12/17 06:37:43;;;;;;;6.70;3.13;;;;;;;1.01;86.13;99333.66;6170055;22;20134;-80
2021/12/17 06:40:19;;;;;;;2.80;2.60;;;;;;;1.04;85.41;99355.88;6221644;22;20019;-80
2021/12/17 06:42:49;;;;;;;3.08;2.88;;;;;;;1.03;86.15;99346.47;6195208;22;20066;-81
2021/12/17 06:45:37;;;;;;;3.15;2.95;;;;;;;0.98;85.26;99344.00;6189143;22;20028;-79
2021/12/17 06:48:11;;;;;;;2.95;2.70;;;;;;;0.97;85.60;99341.50;6173688;22;20509;-81
2021/12/17 07:17:22;;;;;;;2.83;2.67;;;;;;;1.00;84.15;99383.38;6144575;23;20363;-78
2021/12/17 07:35:55;;;;;;;2.97;2.78;;;;;;;1.05;83.67;99401.25;6141276;23;20027;-80
2021/12/17 07:38:37;;;;;;;3.60;2.60;;;;;;;1.01;84.07;99404.78;6168981;23;20534;-81
2021/12/17 07:41:25;;;;;;;2.47;2.35;;;;;;;0.93;84.46;99386.97;6165426;23;20128;-83
2021/12/17 07:43:59;;;;;;;2.70;2.50;;;;;;;0.94;84.56;99387.81;6239354;23;20078;-80
2021/12/17 07:46:28;;;;;;;2.65;2.55;;;;;;;0.93;84.27;99381.84;6211130;23;20282;-81
2021/12/17 07:48:54;;;;;;;3.33;3.13;;;;;;;1.10;83.87;99406.28;6189281;23;20016;-80
2021/12/17 07:51:22;;;;;;;3.42;3.13;;;;;;;1.06;83.50;99390.09;6166678;23;20031;-81
2021/12/17 07:53:59;;;;;;;3.60;3.40;;;;;;;1.22;83.74;99404.25;6175074;23;20043;-82
2021/12/17 07:56:54;;;;;;;3.85;3.58;;;;;;;1.20;83.19;99400.91;6200093;23;20031;-79
2021/12/17 07:59:26;;;;;;;4.55;3.60;;;;;;;1.30;82.36;99409.22;6211247;23;20032;-78
2021/12/17 08:01:54;;;;;;;3.17;3.00;;;;;;;1.38;81.90;99404.72;6116217;23;20085;-79
2021/12/17 08:04:23;;;;;;;3.35;3.00;;;;;;;1.34;81.17;99398.00;6163328;23;20319;-79
2021/12/17 08:07:04;;;;;;;2.92;2.75;;;;;;;1.54;80.24;99412.00;6169592;23;20013;-81
2021/12/17 08:09:35;;;;;;;3.70;3.50;;;;;;;1.47;80.70;99413.03;6224410;23;20023;-81
2021/12/17 08:12:05;;;;;;;3.08;2.97;;;;;;;1.47;80.56;99404.50;6185031;22;20026;-80
2021/12/17 08:14:40;;;;;;;3.60;3.38;;;;;;;1.42;80.70;99401.19;6240553;22;20031;-80
2021/12/17 08:18:10;;;;;;;3.53;3.28;;;;;;;1.47;80.76;99413.03;6166436;22;20369;-81
2021/12/17 08:25:47;;;;;;;3.00;2.80;;;;;;;1.50;78.80;99417.28;6228220;22;20047;-82
2021/12/17 08:28:17;;;;;;;3.03;2.92;;;;;;;1.42;79.46;99409.75;6197334;22;20027;-82
2021/12/17 08:31:00;;;;;;;2.33;2.22;;;;;;;1.38;78.55;99399.56;6197207;22;20024;-82
2021/12/17 08:33:28;;;;;;;2.40;2.30;;;;;;;1.50;77.63;99404.44;6171944;22;20019;-82
2021/12/17 08:35:59;;;;;;;3.05;2.85;;;;;;;1.45;78.15;99394.25;6197968;22;20020;-82
2021/12/17 08:38:34;;;;;;;2.97;2.78;;;;;;;1.42;78.23;99391.75;6174890;22;20020;-80
2021/12/17 08:41:34;;;;;;;3.40;2.80;;;;;;;1.51;78.23;99403.53;6186926;22;20024;-82
2021/12/17 08:44:02;;;;;;;2.55;2.35;;;;;;;1.44;78.32;99389.16;6218797;22;20450;-82
2021/12/17 08:46:32;;;;;;;3.05;2.85;;;;;;;1.47;78.73;99394.22;6172664;22;20028;-82
2021/12/17 08:49:03;;;;;;;3.65;3.10;;;;;;;1.43;78.13;99375.47;6230963;22;20074;-83
2021/12/17 08:52:05;;;;;;;3.13;2.93;;;;;;;1.56;78.65;99394.81;6177149;22;20030;-82
2021/12/17 08:54:45;;;;;;;3.67;3.10;;;;;;;1.55;79.21;99407.72;6256257;22;20027;-83
2021/12/17 08:57:33;;;;;;;3.47;3.17;;;;;;;1.52;80.22;99416.34;6270088;22;20023;-84
2021/12/17 09:00:31;;;;;;;3.90;3.53;;;;;;;1.43;80.91;99392.59;6237566;22;20030;-82
2021/12/17 09:03:02;;;;;;;5.93;3.45;;;;;;;1.51;81.02;99421.53;6226493;22;20267;-83
2021/12/17 09:05:55;;;;;;;5.35;4.63;;;;;;;1.52;81.37;99411.22;6183970;22;20031;-80
2021/12/17 09:08:28;;;;;;;5.32;4.93;;;;;;;1.46;81.78;99410.53;6183818;22;20030;-83
2021/12/17 09:11:05;;;;;;;5.20;4.80;;;;;;;1.40;82.25;99418.41;6174875;23;20020;-81
2021/12/17 09:13:50;;;;;;;4.93;4.63;;;;;;;1.43;82.76;99423.47;6175759;23;20024;-82
2021/12/17 09:16:16;;;;;;;5.25;4.85;;;;;;;1.47;82.50;99432.78;6147116;23;20023;-82
2021/12/17 09:18:46;;;;;;;6.18;5.68;;;;;;;1.37;82.44;99409.03;6143726;23;20465;-78
2021/12/17 09:21:23;;;;;;;5.65;5.15;;;;;;;1.42;82.31;99408.91;6146177;23;20056;-79
2021/12/17 09:24:11;;;;;;;4.75;4.35;;;;;;;1.43;81.76;99418.31;6143601;23;20020;-79
2021/12/17 09:27:06;;;;;;;4.38;4.07;;;;;;;1.53;80.63;99432.63;6115535;23;20025;-79
2021/12/17 09:29:52;;;;;;;4.20;3.90;;;;;;;1.40;79.83;99402.97;6172156;23;20024;-78
2021/12/17 09:32:18;;;;;;;4.28;3.97;;;;;;;1.47;80.02;99410.47;6189493;23;20456;-80
2021/12/17 09:34:45;;;;;;;4.55;4.13;;;;;;;1.53;78.78;99404.34;6140912;23;20046;-79
2021/12/17 09:37:13;;;;;;;3.88;3.50;;;;;;;1.68;79.22;99423.66;6197338;23;20020;-82
2021/12/17 09:39:39;;;;;;;3.28;3.08;;;;;;;1.70;77.86;99422.78;6221915;23;20016;-79
2021/12/17 09:42:06;;;;;;;2.42;2.30;;;;;;;1.63;76.84;99400.66;6139647;23;20020;-80
2021/12/17 09:44:33;;;;;;;2.38;2.28;;;;;;;1.77;75.72;99407.97;6140592;23;20028;-82
2021/12/17 09:47:02;;;;;;;2.00;1.90;;;;;;;1.70;76.26;99402.19;6215475;23;20020;-79
2021/12/17 09:49:58;;;;;;;2.20;2.10;;;;;;;1.79;76.39;99413.94;6187813;23;20219;-79
2021/12/17 09:52:24;;;;;;;2.35;2.25;;;;;;;1.79;76.88;99421.66;6175907;23;20027;-79
2021/12/17 09:54:52;;;;;;;2.63;2.45;;;;;;;1.77;76.53;99407.97;6216486;23;20043;-81
2021/12/17 09:57:35;;;;;;;2.72;2.53;;;;;;;1.76;77.44;99422.59;6174161;23;20119;-81
2021/12/17 10:00:11;;;;;;;2.70;2.50;;;;;;;1.68;77.88;99415.94;6122090;23;20020;-80
2021/12/17 10:02:40;;;;;;;3.22;2.92;;;;;;;1.74;78.20;99421.78;6172694;23;20024;-80
2021/12/17 10:05:07;;;;;;;3.70;3.40;;;;;;;1.77;77.49;99429.41;6195490;23;20016;-80
2021/12/17 10:07:43;;;;;;;3.35;3.15;;;;;;;1.80;77.24;99439.63;6142848;23;20020;-81
2021/12/17 10:10:41;;;;;;;3.53;3.33;;;;;;;1.73;77.41;99420.13;6207420;22;20059;-82
2021/12/17 10:13:13;;;;;;;3.35;3.13;;;;;;;1.76;76.83;99435.47;6143105;23;20024;-81
2021/12/17 10:15:49;;;;;;;3.92;3.58;;;;;;;1.91;77.06;99435.06;6171666;22;20028;-81
2021/12/17 10:18:16;;;;;;;3.67;3.38;;;;;;;1.79;77.63;99425.09;6218757;22;20030;-82
2021/12/17 10:20:56;;;;;;;5.97;4.40;;;;;;;1.79;77.54;99437.09;6195989;22;20027;-82
2021/12/17 10:23:23;;;;;;;3.08;2.88;;;;;;;1.83;76.74;99434.41;6222045;22;20069;-80
2021/12/17 10:26:19;;;;;;;3.70;3.40;;;;;;;1.83;77.79;99447.25;6239092;22;20019;-82
2021/12/17 10:28:58;;;;;;;4.63;4.22;;;;;;;1.61;77.34;99417.84;6220462;22;20020;-81
2021/12/17 10:31:25;;;;;;;6.07;4.70;;;;;;;1.66;77.13;99434.00;6250701;22;20015;-79
2021/12/17 10:34:01;;;;;;;3.80;3.50;;;;;;;1.80;76.70;99449.09;6199553;22;20027;-80
2021/12/17 10:36:31;;;;;;;4.60;4.00;;;;;;;1.73;75.53;99440.69;6197692;22;20020;-82
2021/12/17 10:38:58;;;;;;;4.97;3.15;;;;;;;1.82;76.18;99445.59;6195579;22;20030;-81
2021/12/17 10:41:27;;;;;;;3.88;2.95;;;;;;;1.75;76.60;99435.50;6173318;22;20491;-82
2021/12/17 10:43:59;;;;;;;6.10;3.83;;;;;;;1.85;76.88;99454.97;6194895;22;20023;-81
2021/12/17 10:46:29;;;;;;;3.50;3.20;;;;;;;1.80;75.91;99449.09;6148000;22;20020;-80
2021/12/17 10:49:17;;;;;;;3.97;3.33;;;;;;;1.86;75.99;99457.50;6221742;22;20039;-79
2021/12/17 10:51:48;;;;;;;2.90;2.70;;;;;;;1.70;75.17;99438.22;6219038;22;20419;-79
2021/12/17 10:54:17;;;;;;;3.13;2.70;;;;;;;1.78;75.63;99453.41;6173088;22;20030;-79
2021/12/17 10:56:43;;;;;;;2.88;2.67;;;;;;;1.78;76.17;99461.13;6146181;22;20141;-80
2021/12/17 10:59:13;;;;;;;2.70;2.60;;;;;;;1.74;75.22;99455.22;6245768;22;20020;-82
2021/12/17 11:02:10;;;;;;;3.10;2.90;;;;;;;1.86;75.44;99480.66;6172545;22;20138;-83
2021/12/17 11:04:51;;;;;;;2.72;2.58;;;;;;;1.79;74.83;99466.25;6174289;22;20038;-83
2021/12/17 11:07:19;;;;;;;4.35;3.00;;;;;;;1.75;75.09;99463.78;6177660;22;20034;-82
2021/12/17 11:10:02;;;;;;;3.50;3.20;;;;;;;1.67;75.76;99447.72;6178290;22;20102;-83
2021/12/17 11:12:36;;;;;;;3.22;2.97;;;;;;;1.73;75.20;99468.16;6206745;22;20023;-84
2021/12/17 11:15:39;;;;;;;3.30;3.00;;;;;;;1.69;75.75;99467.38;6208709;22;20015;-82
2021/12/17 11:18:11;;;;;;;3.30;3.10;;;;;;;1.56;76.30;99455.72;6260954;22;20026;-83
2021/12/17 11:20:38;;;;;;;2.63;2.53;;;;;;;1.68;76.20;99486.25;6159669;22;20074;-84
2021/12/17 11:23:08;;;;;;;3.22;2.95;;;;;;;1.66;76.26;99482.88;6210646;22;20023;-83
2021/12/17 11:25:36;;;;;;;3.60;3.15;;;;;;;1.60;76.44;99482.19;6210874;22;20019;-83
2021/12/17 11:28:04;;;;;;;3.55;3.25;;;;;;;1.58;76.83;99485.63;6186005;22;20043;-82
2021/12/17 11:30:36;;;;;;;3.63;3.33;;;;;;;1.66;77.16;99500.03;6182668;22;20077;-82
2021/12/17 11:33:27;;;;;;;6.80;3.67;;;;;;;1.59;78.16;99496.78;6183100;22;20023;-82
2021/12/17 11:35:54;;;;;;;2.78;2.53;;;;;;;1.53;79.11;99496.94;6204017;22;20083;-82
2021/12/17 11:38:42;;;;;;;5.57;4.20;;;;;;;1.51;79.77;99496.09;6213018;22;20030;-83
2021/12/17 11:41:22;;;;;;;4.88;4.05;;;;;;;1.40;80.32;99474.97;6163577;22;20078;-83
2021/12/17 11:44:40;;;;;;;6.38;3.75;;;;;;;1.32;80.97;99466.56;6188804;22;20015;-83
2021/12/17 11:47:11;;;;;;;2.70;2.60;;;;;;;1.41;82.47;99481.78;6188440;22;20460;-83
2021/12/17 11:49:44;;;;;;;1.77;1.75;;;;;;;1.41;82.32;99489.50;6186123;22;20035;-83
2021/12/17 11:52:11;;;;;;;8.18;4.90;;;;;;;1.38;82.92;99487.00;6186810;22;20019;-83
2021/12/17 11:54:38;;;;;;;7.03;5.63;;;;;;;1.41;83.34;99502.34;6184700;22;20046;-83
2021/12/17 11:57:17;;;;;;;5.88;5.47;;;;;;;1.29;83.07;99487.22;6258804;22;20020;-82
2021/12/17 11:59:50;;;;;;;7.25;5.75;;;;;;;1.28;83.21;99490.66;6211243;22;20062;-82
2021/12/17 12:02:46;;;;;;;5.03;4.50;;;;;;;1.23;82.60;99487.38;6218760;22;20464;-82
2021/12/17 12:05:53;;;;;;;3.80;3.60;;;;;;;1.41;79.27;99502.34;6184373;22;20016;-83
2021/12/17 12:09:18;;;;;;;5.30;4.22;;;;;;;1.44;77.34;99512.59;6273678;22;20421;-81
2021/12/17 12:11:45;;;;;;;7.30;3.80;;;;;;;1.43;76.59;99509.16;6210683;22;20027;-82
2021/12/17 12:14:31;;;;;;;12.65;6.10;;;;;;;1.44;76.55;99508.25;6210764;22;20023;-82
2021/12/17 12:16:57;;;;;;;7.40;3.35;;;;;;;1.30;76.10;99507.75;6184638;22;20050;-82
2021/12/17 12:19:47;;;;;;;6.45;4.68;;;;;;;1.27;76.90;99505.25;6198230;22;20024;-82
2021/12/17 12:22:46;;;;;;;3.47;3.17;;;;;;;1.25;76.93;99508.72;6219043;22;20090;-82
2021/12/17 12:25:34;;;;;;;3.33;3.13;;;;;;;1.24;76.56;99513.06;6225585;22;20444;-83
2021/12/17 12:28:02;;;;;;;2.75;2.47;;;;;;;1.20;76.51;99493.44;6179629;22;20020;-83
2021/12/17 12:30:45;;;;;;;4.47;3.10;;;;;;;1.29;76.24;99524.06;6202800;22;20024;-82
2021/12/17 12:33:18;;;;;;;3.40;3.20;;;;;;;1.34;76.02;99514.50;6195587;22;20034;-82
2021/12/17 12:36:11;;;;;;;2.95;2.50;;;;;;;1.37;74.93;99522.16;6180141;22;20020;-82
2021/12/17 12:38:37;;;;;;;3.03;2.40;;;;;;;1.33;74.58;99527.41;6230586;22;20019;-83
2021/12/17 12:41:07;;;;;;;2.60;2.50;;;;;;;1.28;74.59;99516.38;6187138;22;20075;-83
2021/12/17 12:43:35;;;;;;;2.40;2.30;;;;;;;1.30;75.44;99530.06;6211388;22;20034;-83
2021/12/17 12:46:59;;;;;;;3.00;2.80;;;;;;;1.27;74.69;99535.25;6213037;22;20031;-77
2021/12/17 12:50:34;;;;;;;4.43;4.03;;;;;;;1.20;75.04;99523.44;6179512;22;20110;-77
2021/12/17 12:53:05;;;;;;;3.50;3.20;;;;;;;1.18;75.30;99525.19;6084191;23;20184;-77
2021/12/17 12:55:47;;;;;;;4.25;3.88;;;;;;;1.14;75.26;99523.56;6076955;23;20027;-78
2021/12/17 12:58:18;;;;;;;3.47;3.17;;;;;;;1.19;75.18;99537.16;6153550;22;20023;-77
2021/12/17 13:00:48;;;;;;;3.72;3.22;;;;;;;1.23;75.35;99543.91;6198159;22;20019;-78
2021/12/17 13:03:22;;;;;;;3.58;2.40;;;;;;;1.20;74.84;99536.28;6220329;22;20027;-78
2021/12/17 13:06:04;;;;;;;3.28;3.08;;;;;;;1.22;75.39;99547.34;6222041;22;20019;-77
2021/12/17 13:08:30;;;;;;;;;;;;;;;1.20;76.40;99554.28;6174686;22;20074;-77
2021/12/17 13:11:02;;;;;;;3.58;3.28;;;;;;;1.15;76.20;99545.78;6221307;22;19915;-77
2021/12/17 13:13:40;;;;;;;2.95;2.72;;;;;;;1.20;75.95;99549.13;6171455;22;20038;-77
2021/12/17 13:16:15;;;;;;;3.78;3.47;;;;;;;1.14;76.51;99554.41;6225441;22;20054;-77
2021/12/17 13:27:10;;;;;;;3.05;2.78;;;;;;;1.18;76.68;99566.31;6219179;22;20023;-78
2021/12/17 13:29:43;;;;;;;3.17;2.97;;;;;;;1.23;76.02;99561.91;6074687;23;20021;-77
2021/12/17 13:32:17;;;;;;;2.80;2.63;;;;;;;1.19;75.48;99557.72;6098275;23;20025;-78
2021/12/17 13:34:54;;;;;;;2.85;2.65;;;;;;;1.24;75.53;99572.19;6233434;22;20407;-78
2021/12/17 13:37:26;;;;;;;2.88;2.67;;;;;;;1.24;75.78;99579.03;6186048;22;20019;-78
2021/12/17 13:39:58;;;;;;;6.07;3.72;;;;;;;1.16;76.50;99575.78;6213373;22;20099;-77
2021/12/17 13:42:39;;;;;;;3.75;3.45;;;;;;;1.14;76.42;99580.13;6164274;22;20023;-78
2021/12/17 13:45:09;;;;;;;;;;;;;;;1.15;77.32;99589.50;6210373;22;20080;-76
2021/12/17 13:47:41;;;;;;;2.90;2.70;;;;;;;1.12;76.61;99576.72;6221406;22;19922;-78
2021/12/17 13:50:14;;;;;;;2.70;2.60;;;;;;;1.10;76.05;99578.47;6169596;22;20136;-78
2021/12/17 13:52:55;;;;;;;2.70;2.50;;;;;;;1.20;75.85;99593.69;6219660;22;20020;-78
2021/12/17 13:55:25;;;;;;;2.65;2.50;;;;;;;1.07;76.60;99583.69;6219071;22;20023;-77
2021/12/17 13:57:52;;;;;;;3.43;3.23;;;;;;;1.04;76.64;99585.44;6168200;22;20050;-78
2021/12/17 14:00:21;;;;;;;3.42;2.95;;;;;;;1.13;76.71;99602.41;6145315;22;20020;-77
2021/12/17 14:02:52;;;;;;;4.93;3.25;;;;;;;1.11;76.15;99606.72;6219117;22;20444;-77
2021/12/17 14:05:25;;;;;;;6.50;4.13;;;;;;;1.03;76.58;99581.19;6271785;22;20047;-77
2021/12/17 14:07:57;;;;;;;8.02;5.97;;;;;;;1.05;76.02;99594.84;6196932;22;20073;-77
2021/12/17 14:10:34;;;;;;;6.40;5.40;;;;;;;1.10;76.35;99599.03;6145796;22;20077;-77
2021/12/17 14:13:05;;;;;;;6.70;5.47;;;;;;;1.04;76.04;99595.72;6170633;22;20020;-77
2021/12/17 14:15:35;;;;;;;10.63;7.68;;;;;;;1.05;76.34;99594.84;6168830;22;20085;-77
2021/12/17 14:18:14;;;;;;;18.52;9.50;;;;;;;1.13;76.64;99610.09;6217334;22;20455;-77
2021/12/17 14:20:51;;;;;;;11.55;5.55;;;;;;;1.06;76.76;99608.53;6193929;22;20019;-77
2021/12/17 14:23:42;;;;;;;4.30;3.25;;;;;;;1.18;75.94;99607.44;6205435;22;20031;-77
2021/12/17 14:26:08;;;;;;;3.60;3.10;;;;;;;1.00;75.91;99580.41;6194282;22;20020;-77
2021/12/17 14:28:37;;;;;;;4.38;3.20;;;;;;;1.15;76.63;99612.63;6157732;22;20080;-75
2021/12/17 14:31:06;;;;;;;3.25;2.88;;;;;;;1.04;76.93;99600.88;6138987;22;20038;-76
2021/12/17 14:33:39;;;;;;;10.35;3.95;;;;;;;1.15;77.64;99628.03;6216392;22;20019;-76
2021/12/17 14:36:10;;;;;;;6.78;3.80;;;;;;;1.10;77.99;99607.59;6168747;22;20015;-81
2021/12/17 14:38:40;;;;;;;7.82;4.47;;;;;;;1.11;78.54;99629.00;6170532;22;20023;-81
2021/12/17 14:41:15;;;;;;;7.38;3.78;;;;;;;1.05;79.07;99617.97;6245894;22;20082;-81
2021/12/17 14:43:58;;;;;;;4.53;4.03;;;;;;;0.99;79.60;99628.38;6173839;22;20023;-79
2021/12/17 14:46:58;;;;;;;4.43;3.97;;;;;;;0.95;79.65;99636.16;6224722;22;20024;-81
2021/12/17 15:00:59;;;;;;;2.97;2.78;;;;;;;0.70;80.38;99624.66;6170760;22;20090;-83
2021/12/17 15:03:41;;;;;;;3.35;2.90;;;;;;;0.71;80.48;99629.78;6229973;22;20023;-82
2021/12/17 15:06:13;;;;;;;2.55;2.45;;;;;;;0.67;80.26;99625.56;6196368;23;20031;-82
2021/12/17 15:08:47;;;;;;;3.50;3.20;;;;;;;0.74;80.49;99649.44;6139128;23;20116;-82
2021/12/17 15:11:25;;;;;;;2.90;2.70;;;;;;;0.77;79.66;99647.66;6172795;22;20027;-82
2021/12/17 15:14:14;;;;;;;3.80;3.50;;;;;;;0.69;80.65;99654.63;6177151;22;20019;-82
2021/12/17 15:16:41;;;;;;;2.78;2.58;;;;;;;0.69;79.80;99653.81;6177264;22;20020;-82
2021/12/17 15:19:08;;;;;;;3.58;2.58;;;;;;;0.72;78.12;99646.88;6162755;22;20020;-82
2021/12/17 15:21:50;;;;;;;7.25;2.65;;;;;;;0.63;78.44;99636.78;6184275;22;20340;-82
2021/12/17 15:24:18;;;;;;;4.47;2.00;;;;;;;0.72;76.56;99644.31;6152039;22;20062;-81
2021/12/17 15:26:47;;;;;;;2.60;2.40;;;;;;;0.62;77.17;99668.50;6197791;22;20020;-81
2021/12/17 15:29:14;;;;;;;6.15;3.25;;;;;;;0.56;77.86;99652.34;6190085;22;20020;-79
2021/12/17 15:31:41;;;;;;;2.83;2.45;;;;;;;0.55;78.02;99674.59;6193213;22;20136;-81
2021/12/17 15:34:07;;;;;;;2.92;2.53;;;;;;;0.62;78.70;99686.47;6193763;22;20102;-80
2021/12/17 15:36:33;;;;;;;4.30;2.80;;;;;;;0.56;78.47;99683.16;6193891;22;20070;-77
2021/12/17 15:38:59;;;;;;;2.83;2.50;;;;;;;0.45;78.19;99662.78;6219305;22;20023;-81
2021/12/17 15:41:31;;;;;;;7.65;2.67;;;;;;;0.63;78.82;99700.13;6194223;22;20024;-81
2021/12/17 15:43:57;;;;;;;4.18;2.55;;;;;;;0.57;78.75;99685.69;6196975;22;20030;-83
2021/12/17 15:46:26;;;;;;;2.78;2.22;;;;;;;0.65;78.09;99704.38;6153351;22;20035;-82
2021/12/17 15:48:54;;;;;;;3.85;2.50;;;;;;;0.50;77.96;99678.94;6153545;22;20080;-82
2021/12/17 15:51:22;;;;;;;2.33;2.05;;;;;;;0.50;78.08;99678.94;6219979;22;20102;-81
2021/12/17 15:53:49;;;;;;;2.65;2.30;;;;;;;0.49;77.64;99670.41;6170975;22;20019;-79
2021/12/17 15:56:18;;;;;;;2.17;2.05;;;;;;;0.65;77.13;99700.97;6219643;22;20025;-81
2021/12/17 15:58:47;;;;;;;6.45;2.35;;;;;;;0.51;76.61;99675.53;6194450;22;20047;-79
2021/12/17 16:01:19;;;;;;;2.45;2.28;;;;;;;0.67;76.12;99701.78;6193738;22;20028;-79
2021/12/17 16:03:50;;;;;;;3.28;2.13;;;;;;;0.64;75.44;99683.84;6221004;22;20110;-79
2021/12/17 16:06:16;;;;;;;1.67;1.67;;;;;;;0.73;75.49;99697.38;6221807;22;20019;-79
2021/12/17 16:08:47;;;;;;;2.30;2.08;;;;;;;0.72;75.42;99710.28;6245285;22;20106;-79
2021/12/17 16:22:34;;;;;;;2.25;2.05;;;;;;;0.53;77.04;99690.03;6211242;22;20102;-82
2021/12/17 16:25:02;;;;;;;1.92;1.83;;;;;;;0.56;76.97;99699.38;6176237;22;20023;-81
2021/12/17 16:27:31;;;;;;;3.05;2.47;;;;;;;0.44;77.64;99679.06;6224036;22;20020;-80
2021/12/17 16:30:17;;;;;;;2.55;2.45;;;;;;;0.56;77.83;99701.13;6176114;22;20041;-81
2021/12/17 16:32:44;;;;;;;2.50;2.40;;;;;;;0.51;78.44;99696.06;6234923;22;20065;-82
2021/12/17 16:35:15;;;;;;;2.78;2.47;;;;;;;0.61;78.66;99715.59;6180721;22;20035;-82
2021/12/17 16:37:46;;;;;;;2.55;2.35;;;;;;;0.45;78.57;99688.47;6174605;22;20024;-82
2021/12/17 16:40:35;;;;;;;1.92;1.83;;;;;;;0.59;78.69;99716.50;6179141;22;20404;-80
2021/12/17 16:43:05;;;;;;;2.60;2.50;;;;;;;0.52;79.19;99702.91;6248083;22;20015;-81
2021/12/17 16:45:42;;;;;;;4.75;3.03;;;;;;;0.51;79.07;99703.75;6170615;22;20035;-81
2021/12/17 16:48:11;;;;;;;3.00;2.80;;;;;;;0.57;79.09;99710.50;6154921;22;20024;-81
2021/12/17 16:50:39;;;;;;;2.60;2.40;;;;;;;0.66;78.82;99725.75;6265778;22;20023;-82
2021/12/17 16:53:07;;;;;;;5.15;2.60;;;;;;;0.66;78.57;99721.47;6170915;22;20031;-84
2021/12/17 16:55:42;;;;;;;3.08;2.88;;;;;;;0.51;78.54;99691.78;6185533;22;20023;-83
2021/12/17 16:58:16;;;;;;;4.15;2.90;;;;;;;0.62;78.35;99712.16;6204582;22;20054;-81
2021/12/17 17:00:44;;;;;;;3.22;2.65;;;;;;;0.63;78.21;99705.25;6196615;22;20388;-81
2021/12/17 17:03:14;;;;;;;2.53;2.42;;;;;;;0.57;77.93;99695.09;6181199;22;20026;-83
2021/12/17 17:05:43;;;;;;;3.53;2.83;;;;;;;0.77;77.85;99729.00;6209244;22;20455;-82
2021/12/17 17:08:09;;;;;;;2.60;2.40;;;;;;;0.60;78.32;99706.16;6195130;22;20025;-80
2021/12/17 17:10:36;;;;;;;2.78;2.58;;;;;;;0.74;77.76;99726.50;6193717;22;20027;-81
2021/12/17 17:13:05;;;;;;;2.55;2.45;;;;;;;0.66;77.24;99712.91;6203498;22;20016;-81
2021/12/17 17:15:34;;;;;;;3.33;3.00;;;;;;;0.81;77.13;99718.66;6152156;22;20098;-82
2021/12/17 17:18:09;;;;;;;3.35;3.15;;;;;;;0.79;77.04;99722.09;6255293;22;20494;-83
2021/12/17 17:20:37;;;;;;;7.38;3.40;;;;;;;0.61;77.00;99699.31;6181976;22;20016;-83
2021/12/17 17:23:03;;;;;;;3.80;3.50;;;;;;;0.84;76.92;99736.59;6160692;22;20085;-83
2021/12/17 17:25:40;;;;;;;3.33;3.13;;;;;;;0.85;77.00;99738.25;6216912;22;20019;-83
2021/12/17 17:28:11;;;;;;;5.97;3.25;;;;;;;0.83;76.90;99734.88;6182949;22;20030;-83
2021/12/17 17:30:38;;;;;;;4.63;3.53;;;;;;;0.70;76.42;99710.28;6236047;22;20024;-83
2021/12/17 17:33:14;;;;;;;3.70;3.40;;;;;;;0.85;76.69;99747.72;6202889;22;20019;-82
2021/12/17 21:38:07;;;;;;;22.63;10.95;;;;;;;0.41;87.28;99880.22;6226134;22;20028;-81
2021/12/17 21:40:42;;;;;;;5.13;4.72;;;;;;;0.40;87.48;99896.50;6142272;23;20348;-80
2021/12/17 21:46:01;;;;;;;4.97;4.30;;;;;;;0.25;87.98;99873.59;6152351;23;20078;-82
2021/12/17 21:48:36;;;;;;;5.75;5.25;;;;;;;0.37;88.29;99893.13;6193954;23;20024;-80
2021/12/17 21:51:03;;;;;;;5.53;5.10;;;;;;;0.21;88.43;99864.22;6216918;23;20079;-82
2021/12/17 21:53:29;;;;;;;4.88;4.55;;;;;;;0.27;89.01;99874.41;6165756;23;20147;-80
2021/12/17 21:55:55;;;;;;;5.40;5.00;;;;;;;0.25;89.94;99885.56;6189964;23;20054;-81
2021/12/17 21:58:22;;;;;;;6.65;5.70;;;;;;;0.17;90.22;99880.53;6141100;23;20093;-81
2021/12/17 22:00:55;;;;;;;6.47;5.95;;;;;;;0.16;90.54;99876.28;6140751;23;20024;-82
2021/12/17 22:03:23;;;;;;;5.90;5.30;;;;;;;0.19;91.74;99899.34;6215346;23;20408;-81
2021/12/17 22:05:53;;;;;;;7.18;6.60;;;;;;;0.12;91.92;99886.59;6190405;23;20016;-81
2021/12/17 22:08:19;;;;;;;5.85;5.35;;;;;;;0.12;92.30;99886.59;6165989;23;20028;-82
2021/12/17 22:10:47;;;;;;;8.73;6.45;;;;;;;0.17;92.30;99892.50;6215562;23;20020;-79
2021/12/17 22:13:14;;;;;;;6.38;5.55;;;;;;;0.20;92.43;99901.03;6142438;23;20016;-82
2021/12/17 22:15:41;;;;;;;7.88;6.45;;;;;;;0.07;92.34;99880.66;6217453;23;20519;-82
2021/12/17 22:18:07;;;;;;;6.70;6.07;;;;;;;0.10;93.13;99885.78;6162100;22;20103;-82
2021/12/17 22:20:47;;;;;;;6.82;5.97;;;;;;;0.12;92.47;99897.72;6194774;22;20024;-81
2021/12/17 22:23:13;;;;;;;9.40;6.78;;;;;;;0.18;91.91;99892.50;6198487;22;20026;-81
2021/12/17 22:25:49;;;;;;;6.00;5.50;;;;;;;0.13;91.87;99888.31;6245539;22;20031;-81
2021/12/17 22:28:17;;;;;;;5.53;5.13;;;;;;;0.18;91.56;99889.09;6174771;22;20030;-81
2021/12/17 22:30:45;;;;;;;6.03;5.53;;;;;;;0.13;91.05;99880.59;6195255;22;20019;-81
2021/12/17 22:33:11;;;;;;;6.07;5.57;;;;;;;0.16;91.47;99873.72;6200366;22;20073;-82
2021/12/17 22:35:37;;;;;;;8.82;6.22;;;;;;;0.09;91.14;99871.25;6259609;22;20039;-81
2021/12/17 22:38:04;;;;;;;6.28;5.78;;;;;;;0.18;90.91;99887.38;6239547;22;20031;-83
2021/12/17 22:40:34;;;;;;;5.95;5.38;;;;;;;0.23;90.80;99895.03;6192339;22;20023;-84
2021/12/17 22:43:05;;;;;;;6.00;5.50;;;;;;;0.23;90.13;99889.91;6192318;22;20023;-83
2021/12/17 22:45:44;;;;;;;7.97;5.63;;;;;;;0.18;89.82;99878.81;6222054;22;20000;-82
2021/12/17 22:48:15;;;;;;;7.20;4.82;;;;;;;0.24;89.67;99883.88;6200103;22;20016;-82
2021/12/17 22:50:41;;;;;;;3.80;3.60;;;;;;;0.22;89.39;99878.78;6171476;22;20020;-83
2021/12/17 22:53:08;;;;;;;5.28;4.85;;;;;;;0.23;89.44;99885.59;6265902;22;20042;-81
2021/12/17 22:55:37;;;;;;;6.47;5.88;;;;;;;0.22;88.96;99883.06;6208082;22;20075;-84
2021/12/17 22:58:21;;;;;;;10.32;4.00;;;;;;;0.28;88.69;99896.66;6222729;23;20017;-81
2021/12/17 23:01:00;;;;;;;8.52;4.15;;;;;;;0.31;88.29;99894.06;6201499;22;20043;-82
2021/12/17 23:03:34;;;;;;;4.70;4.38;;;;;;;0.17;88.25;99864.28;6170617;22;20020;-81
2021/12/17 23:06:00;;;;;;;5.53;5.03;;;;;;;0.30;88.16;99891.50;6259011;22;20015;-81
2021/12/17 23:11:13;;;;;;;5.22;4.72;;;;;;;0.24;88.82;99900.13;6195342;22;20023;-82
2021/12/17 23:13:40;;;;;;;5.60;5.03;;;;;;;0.08;88.35;99866.97;6191230;22;20020;-82
2021/12/17 23:16:06;;;;;;;5.53;4.85;;;;;;;0.09;87.82;99866.97;6164464;22;20043;-81
2021/12/17 23:18:32;;;;;;;3.90;3.60;;;;;;;0.31;87.31;99898.31;6235350;22;20039;-82
2021/12/17 23:21:03;;;;;;;6.15;5.57;;;;;;;0.22;87.52;99888.19;6239047;22;20358;-81
2021/12/17 23:23:30;;;;;;;4.80;4.40;;;;;;;0.06;87.35;99858.44;6193403;22;20023;-82
2021/12/17 23:26:02;;;;;;;5.00;4.57;;;;;;;0.27;87.56;99900.09;6217905;22;20084;-82
2021/12/17 23:28:34;;;;;;;4.30;4.00;;;;;;;0.28;87.18;99893.25;6190498;22;20505;-81
2021/12/17 23:31:04;;;;;;;5.63;5.13;;;;;;;0.12;87.28;99878.91;6237974;22;20012;-81
2021/12/17 23:33:45;;;;;;;4.40;3.75;;;;;;;0.25;87.58;99898.41;6206411;22;20027;-81
2021/12/17 23:36:11;;;;;;;7.10;3.92;;;;;;;0.26;87.24;99900.13;6212977;22;20019;-81
2021/12/17 23:38:51;;;;;;;5.93;4.70;;;;;;;0.09;87.04;99871.25;6214498;22;20082;-83
2021/12/17 23:41:18;;;;;;;6.68;4.82;;;;;;;0.16;87.29;99885.69;6239297;22;20421;-81
2021/12/17 23:43:49;;;;;;;5.43;4.10;;;;;;;0.13;87.02;99878.88;6184200;22;20054;-82
2021/12/17 23:46:26;;;;;;;8.15;4.70;;;;;;;0.21;87.45;99894.19;6253254;22;20355;-81
2021/12/17 23:48:57;;;;;;;4.20;3.90;;;;;;;0.23;87.05;99895.03;6199959;22;20019;-80
2021/12/17 23:51:23;;;;;;;4.43;3.50;;;;;;;0.28;87.41;99906.94;6202515;22;20162;-82